Time;durP1;ratioP1;P1;durP2;ratioP2;P2;SDS_P1;SDS_P2;PMS_P1;PMS_P2;Temp;Humidity;BMP_temperature;BMP_pressure;BME280_temperature;BME280_humidity;BME280_pressure;Samples;Min_cycle;Max_cycle;Signal;HPM_P1;HPM_P2
2022/10/06 00:01:36;;;;;;;16.90;8.43;;;;;;;;;;4997513;28;20084;-70
2022/10/06 00:04:01;;;;;;;15.23;8.40;;;;;;;;;;4997849;28;20053;-69
2022/10/06 00:06:27;;;;;;;12.25;8.20;;;;;;;;;;4997191;28;20366;-69
2022/10/06 00:08:52;;;;;;;11.98;8.45;;;;;;;;;;4995915;28;20030;-69
2022/10/06 00:11:17;;;;;;;11.68;8.43;;;;;;;;;;4997101;28;20046;-68
2022/10/06 00:13:43;;;;;;;17.40;8.55;;;;;;;;;;4997393;28;20027;-69
2022/10/06 00:16:16;;;;;;;13.82;9.02;;;;;;;;;;4979596;28;20392;-68
2022/10/06 00:18:41;;;;;;;12.23;8.98;;;;;;;;;;4997037;28;20054;-69
2022/10/06 00:21:07;;;;;;;12.35;8.77;;;;;;;;;;4979517;28;20515;-68
2022/10/06 00:23:32;;;;;;;12.25;9.15;;;;;;;;;;4997117;28;20381;-67
2022/10/06 00:25:58;;;;;;;12.07;8.70;;;;;;;;;;4997182;28;20049;-67
2022/10/06 00:28:23;;;;;;;14.57;8.52;;;;;;;;;;4997139;28;20428;-68
2022/10/06 00:30:52;;;;;;;10.60;7.47;;;;;;;;;;4979685;28;20029;-69
2022/10/06 00:33:17;;;;;;;9.88;7.20;;;;;;;;;;4996815;28;20034;-68
2022/10/06 00:35:45;;;;;;;10.00;6.10;;;;;;;;;;4979224;28;20019;-68
2022/10/06 00:38:11;;;;;;;8.57;5.60;;;;;;;;;;4980328;28;20030;-70
2022/10/06 00:40:41;;;;;;;6.43;5.38;;;;;;;;;;4979202;28;20022;-69
2022/10/06 00:43:30;;;;;;;7.03;5.00;;;;;;;;;;4996853;28;20019;-69
2022/10/06 00:45:55;;;;;;;6.18;4.82;;;;;;;;;;4979437;28;20030;-68
2022/10/06 00:48:22;;;;;;;5.00;4.53;;;;;;;;;;4996501;28;20427;-68
2022/10/06 00:50:48;;;;;;;10.20;4.68;;;;;;;;;;4996620;28;20037;-68
2022/10/06 00:53:14;;;;;;;9.05;4.80;;;;;;;;;;4978894;28;20019;-69
2022/10/06 00:55:39;;;;;;;5.68;4.15;;;;;;;;;;4978804;28;20394;-67
2022/10/06 00:58:05;;;;;;;5.15;4.10;;;;;;;;;;4996327;28;20449;-68
2022/10/06 01:00:31;;;;;;;6.07;3.65;;;;;;;;;;4996219;28;20050;-69
2022/10/06 01:02:59;;;;;;;4.35;3.80;;;;;;;;;;4996260;28;20034;-71
2022/10/06 01:05:26;;;;;;;5.03;3.47;;;;;;;;;;4995024;28;20034;-69
2022/10/06 01:07:52;;;;;;;3.78;3.40;;;;;;;;;;4996688;28;20044;-70
2022/10/06 01:10:18;;;;;;;4.47;3.35;;;;;;;;;;4994927;28;20557;-69
2022/10/06 01:12:43;;;;;;;4.20;3.55;;;;;;;;;;4996052;28;20114;-68
2022/10/06 01:15:09;;;;;;;6.25;3.40;;;;;;;;;;4995927;28;20038;-68
2022/10/06 01:17:37;;;;;;;3.58;3.20;;;;;;;;;;4996179;28;20022;-66
2022/10/06 01:20:07;;;;;;;4.95;3.47;;;;;;;;;;4995896;28;20034;-67
2022/10/06 01:22:35;;;;;;;4.85;3.35;;;;;;;;;;4978345;28;20113;-66
2022/10/06 01:25:02;;;;;;;4.43;3.20;;;;;;;;;;4995825;28;20097;-66
2022/10/06 01:27:29;;;;;;;5.43;3.40;;;;;;;;;;4995760;28;20022;-67
2022/10/06 01:29:55;;;;;;;4.82;3.42;;;;;;;;;;4978545;28;20037;-69
2022/10/06 01:32:22;;;;;;;5.57;3.47;;;;;;;;;;4995737;28;20077;-68
2022/10/06 01:34:47;;;;;;;7.05;3.88;;;;;;;;;;4995649;28;20105;-68
2022/10/06 01:37:12;;;;;;;4.35;3.50;;;;;;;;;;4978072;28;20524;-67
2022/10/06 01:39:39;;;;;;;4.22;3.83;;;;;;;;;;4978729;28;20030;-67
2022/10/06 01:42:04;;;;;;;6.30;3.75;;;;;;;;;;4995564;28;20073;-68
2022/10/06 01:44:30;;;;;;;6.72;4.55;;;;;;;;;;4962161;28;20054;-70
2022/10/06 01:46:55;;;;;;;7.75;4.90;;;;;;;;;;4978541;28;20018;-70
2022/10/06 01:49:21;;;;;;;5.95;5.32;;;;;;;;;;4977884;28;20034;-70
2022/10/06 01:51:46;;;;;;;6.93;5.30;;;;;;;;;;4977806;28;20017;-69
2022/10/06 01:54:13;;;;;;;7.03;5.10;;;;;;;;;;4977815;28;20026;-70
2022/10/06 01:56:38;;;;;;;5.32;4.55;;;;;;;;;;4977730;28;20437;-69
2022/10/06 01:59:04;;;;;;;7.03;4.70;;;;;;;;;;4977833;28;20084;-69
2022/10/06 02:01:30;;;;;;;5.25;4.65;;;;;;;;;;4977700;28;20046;-70
2022/10/06 02:03:55;;;;;;;6.28;4.13;;;;;;;;;;4977638;28;20503;-70
2022/10/06 02:06:21;;;;;;;7.43;4.68;;;;;;;;;;4977563;28;20031;-70
2022/10/06 02:08:47;;;;;;;4.85;4.45;;;;;;;;;;4977545;28;20030;-69
2022/10/06 02:11:13;;;;;;;7.47;4.70;;;;;;;;;;4977523;28;20018;-70
2022/10/06 02:13:42;;;;;;;6.40;4.35;;;;;;;;;;4977468;28;20393;-70
2022/10/06 02:16:08;;;;;;;4.68;4.07;;;;;;;;;;4994728;28;20026;-69
2022/10/06 02:18:34;;;;;;;5.00;4.00;;;;;;;;;;4994774;28;20496;-69
2022/10/06 02:21:00;;;;;;;5.32;3.80;;;;;;;;;;4977726;28;20030;-69
2022/10/06 02:23:26;;;;;;;4.60;3.90;;;;;;;;;;4994365;28;20034;-68
2022/10/06 02:25:58;;;;;;;4.78;3.83;;;;;;;;;;4977245;28;20401;-67
2022/10/06 02:28:25;;;;;;;4.13;3.75;;;;;;;;;;4977859;28;20030;-69
2022/10/06 02:30:51;;;;;;;4.93;3.83;;;;;;;;;;4995178;28;20110;-69
2022/10/06 02:33:16;;;;;;;4.85;4.43;;;;;;;;;;4994520;28;20109;-68
2022/10/06 02:35:42;;;;;;;4.97;4.47;;;;;;;;;;4977061;28;20014;-67
2022/10/06 02:38:08;;;;;;;4.68;4.18;;;;;;;;;;4977536;28;20076;-69
2022/10/06 02:40:34;;;;;;;6.22;5.00;;;;;;;;;;4994466;28;20412;-69
2022/10/06 02:43:00;;;;;;;4.65;4.25;;;;;;;;;;4977370;28;20062;-68
2022/10/06 02:45:26;;;;;;;5.80;4.55;;;;;;;;;;4976957;28;20475;-70
2022/10/06 02:47:53;;;;;;;5.68;4.70;;;;;;;;;;4977037;28;20469;-70
2022/10/06 02:50:18;;;;;;;5.45;4.78;;;;;;;;;;4976882;28;20049;-69
2022/10/06 02:52:44;;;;;;;7.03;4.72;;;;;;;;;;4976942;28;20030;-68
2022/10/06 02:55:10;;;;;;;5.75;4.78;;;;;;;;;;4994542;28;20122;-70
2022/10/06 02:57:36;;;;;;;10.48;5.63;;;;;;;;;;4992977;28;20501;-69
2022/10/06 03:00:03;;;;;;;7.35;5.78;;;;;;;;;;4977080;28;20050;-69
2022/10/06 03:02:31;;;;;;;8.52;5.93;;;;;;;;;;4977036;28;20022;-70
2022/10/06 03:04:56;;;;;;;10.25;6.80;;;;;;;;;;4976746;28;20037;-70
2022/10/06 03:07:22;;;;;;;11.43;7.53;;;;;;;;;;4976777;28;20029;-68
2022/10/06 03:09:47;;;;;;;19.48;9.95;;;;;;;;;;4994172;28;20073;-69
2022/10/06 03:12:13;;;;;;;9.30;6.05;;;;;;;;;;4993501;28;20036;-71
2022/10/06 03:14:41;;;;;;;10.55;6.50;;;;;;;;;;4976822;28;20025;-71
2022/10/06 03:17:10;;;;;;;5.30;4.72;;;;;;;;;;4976719;28;20027;-71
2022/10/06 03:19:42;;;;;;;5.63;4.55;;;;;;;;;;4976701;28;20420;-70
2022/10/06 03:22:09;;;;;;;5.65;5.07;;;;;;;;;;4976608;28;20022;-70
2022/10/06 03:24:43;;;;;;;7.15;4.70;;;;;;;;;;4976580;28;20038;-70
2022/10/06 03:27:09;;;;;;;5.47;4.88;;;;;;;;;;4977136;28;20477;-70
2022/10/06 03:29:34;;;;;;;7.40;5.00;;;;;;;;;;4994265;28;20080;-68
2022/10/06 03:32:01;;;;;;;9.95;4.97;;;;;;;;;;4976914;28;20034;-71
2022/10/06 03:34:27;;;;;;;9.20;5.25;;;;;;;;;;4978617;28;20018;-70
2022/10/06 03:36:54;;;;;;;7.38;4.88;;;;;;;;;;4980238;28;20072;-69
2022/10/06 03:39:22;;;;;;;5.15;4.60;;;;;;;;;;4997937;28;20424;-70
2022/10/06 03:41:48;;;;;;;8.73;7.18;;;;;;;;;;4996415;28;20034;-67
2022/10/06 03:44:14;;;;;;;8.93;5.20;;;;;;;;;;4997932;28;20023;-70
2022/10/06 03:46:41;;;;;;;8.95;4.30;;;;;;;;;;4980245;28;20038;-68
2022/10/06 03:49:07;;;;;;;13.20;6.68;;;;;;;;;;4980060;28;20033;-70
2022/10/06 03:51:37;;;;;;;16.00;7.57;;;;;;;;;;4979808;28;20041;-69
2022/10/06 03:54:02;;;;;;;8.45;4.65;;;;;;;;;;4980078;28;20029;-68
2022/10/06 03:56:31;;;;;;;5.00;4.15;;;;;;;;;;4980371;28;20096;-69
2022/10/06 03:59:01;;;;;;;5.88;3.80;;;;;;;;;;4979949;28;20206;-69
2022/10/06 04:01:28;;;;;;;13.15;6.30;;;;;;;;;;4979426;28;20046;-69
2022/10/06 04:03:55;;;;;;;6.50;3.80;;;;;;;;;;4979543;28;20030;-72
2022/10/06 04:06:21;;;;;;;4.53;3.80;;;;;;;;;;4979785;28;20544;-70
2022/10/06 04:08:47;;;;;;;6.85;3.97;;;;;;;;;;4997591;28;20049;-72
2022/10/06 04:11:15;;;;;;;5.35;4.03;;;;;;;;;;4980129;28;20030;-73
2022/10/06 04:13:41;;;;;;;3.85;3.50;;;;;;;;;;4980018;28;20457;-73
2022/10/06 04:16:10;;;;;;;3.85;3.55;;;;;;;;;;4979639;28;20035;-72
2022/10/06 04:18:35;;;;;;;14.68;6.72;;;;;;;;;;4979335;28;20077;-72
2022/10/06 04:21:00;;;;;;;14.52;9.90;;;;;;;;;;4996650;28;20026;-74
2022/10/06 04:23:27;;;;;;;5.35;4.20;;;;;;;;;;4979643;28;20457;-74
2022/10/06 04:26:14;;;;;;;11.98;7.10;;;;;;;;;;4979633;28;20080;-74
2022/10/06 04:28:44;;;;;;;5.40;4.10;;;;;;;;;;4995912;28;20023;-74
2022/10/06 04:31:14;;;;;;;6.82;4.20;;;;;;;;;;4979182;28;20030;-73
2022/10/06 04:33:39;;;;;;;6.95;4.55;;;;;;;;;;4962818;28;20393;-74
2022/10/06 04:36:06;;;;;;;5.97;5.28;;;;;;;;;;4979168;28;20018;-74
2022/10/06 04:38:35;;;;;;;7.32;4.70;;;;;;;;;;4996166;28;20125;-73
2022/10/06 04:41:14;;;;;;;5.85;4.25;;;;;;;;;;4996459;28;20118;-74
2022/10/06 04:43:39;;;;;;;6.28;4.88;;;;;;;;;;4995202;28;20028;-73
2022/10/06 04:46:05;;;;;;;7.78;6.05;;;;;;;;;;4978757;28;20109;-74
2022/10/06 04:48:31;;;;;;;6.78;5.63;;;;;;;;;;4977360;28;20073;-73
2022/10/06 04:51:01;;;;;;;12.43;7.95;;;;;;;;;;4994295;28;20037;-73
2022/10/06 04:53:27;;;;;;;10.38;8.00;;;;;;;;;;4976631;28;20034;-70
2022/10/06 04:56:03;;;;;;;16.17;9.98;;;;;;;;;;4976684;28;20022;-72
2022/10/06 04:58:33;;;;;;;8.95;6.90;;;;;;;;;;4977221;28;20481;-71
2022/10/06 05:00:59;;;;;;;8.23;6.63;;;;;;;;;;4977209;28;20126;-71
2022/10/06 05:03:27;;;;;;;7.22;5.40;;;;;;;;;;4995256;28;20106;-71
2022/10/06 05:05:52;;;;;;;29.02;19.60;;;;;;;;;;4961752;28;20499;-71
2022/10/06 05:08:17;;;;;;;9.82;6.70;;;;;;;;;;4977710;28;20094;-70
2022/10/06 05:10:43;;;;;;;17.42;9.18;;;;;;;;;;4977376;28;20033;-71
2022/10/06 05:13:10;;;;;;;16.48;10.70;;;;;;;;;;4977907;28;20467;-70
2022/10/06 05:15:35;;;;;;;8.70;6.60;;;;;;;;;;4977234;28;20259;-70
2022/10/06 05:18:01;;;;;;;10.30;6.88;;;;;;;;;;4977248;28;20442;-69
2022/10/06 05:20:26;;;;;;;17.88;13.27;;;;;;;;;;4977789;28;20030;-70
2022/10/06 05:22:52;;;;;;;17.98;11.77;;;;;;;;;;4977178;28;20025;-70
2022/10/06 05:25:17;;;;;;;24.80;17.30;;;;;;;;;;4977747;28;20041;-70
2022/10/06 05:27:43;;;;;;;19.88;13.38;;;;;;;;;;4977358;28;20457;-70
2022/10/06 05:30:08;;;;;;;18.15;11.60;;;;;;;;;;4977187;28;20048;-70
2022/10/06 05:32:34;;;;;;;32.35;18.08;;;;;;;;;;4994652;28;20026;-70
2022/10/06 05:34:59;;;;;;;23.05;15.02;;;;;;;;;;4994746;28;20038;-70
2022/10/06 05:37:25;;;;;;;39.22;18.05;;;;;;;;;;4977133;28;20018;-71
2022/10/06 05:39:51;;;;;;;28.33;14.27;;;;;;;;;;4976812;28;20022;-71
2022/10/06 05:42:16;;;;;;;17.20;10.13;;;;;;;;;;4976991;28;20168;-71
2022/10/06 05:44:42;;;;;;;11.75;6.68;;;;;;;;;;4976710;28;20117;-71
2022/10/06 05:47:09;;;;;;;12.48;7.32;;;;;;;;;;4977183;28;20022;-71
2022/10/06 05:49:35;;;;;;;16.75;9.63;;;;;;;;;;4976662;28;20029;-71
2022/10/06 05:52:02;;;;;;;12.27;8.02;;;;;;;;;;4976741;28;20473;-71
2022/10/06 05:54:33;;;;;;;9.35;5.05;;;;;;;;;;4976718;28;20026;-71
2022/10/06 05:56:58;;;;;;;7.57;5.18;;;;;;;;;;4976064;28;20045;-71
2022/10/06 05:59:24;;;;;;;11.13;6.38;;;;;;;;;;4994186;28;20473;-71
2022/10/06 06:01:52;;;;;;;11.00;7.07;;;;;;;;;;4975955;28;20030;-71
2022/10/06 06:04:30;;;;;;;8.02;6.50;;;;;;;;;;4993794;28;20030;-71
2022/10/06 06:06:56;;;;;;;11.48;6.90;;;;;;;;;;4976613;28;20038;-71
2022/10/06 06:09:22;;;;;;;9.38;6.13;;;;;;;;;;4977166;28;20026;-70
2022/10/06 06:11:54;;;;;;;7.13;5.63;;;;;;;;;;4995015;28;20105;-71
2022/10/06 06:15:59;;;;;;;8.95;5.07;;;;;;;;;;4977819;28;20033;-70
2022/10/06 06:17:13;;;;;;;8.65;5.53;;;;;;;;;;4977629;28;20050;-70
2022/10/06 06:19:39;;;;;;;8.80;5.10;;;;;;;;;;4978104;28;20079;-71
2022/10/06 06:22:05;;;;;;;14.07;6.47;;;;;;;;;;4977818;28;20480;-71
2022/10/06 06:24:34;;;;;;;13.77;7.18;;;;;;;;;;4977633;28;20389;-70
2022/10/06 06:26:59;;;;;;;5.57;5.07;;;;;;;;;;4977165;28;20022;-70
2022/10/06 06:29:25;;;;;;;6.65;4.38;;;;;;;;;;4977758;28;20069;-70
2022/10/06 06:31:50;;;;;;;5.05;4.32;;;;;;;;;;4977205;28;20010;-71
2022/10/06 06:34:16;;;;;;;4.50;4.00;;;;;;;;;;4977187;28;20086;-73
2022/10/06 06:36:44;;;;;;;5.82;4.60;;;;;;;;;;4977104;28;20029;-71
2022/10/06 06:39:13;;;;;;;5.65;4.50;;;;;;;;;;4977195;28;20027;-71
2022/10/06 06:41:40;;;;;;;4.55;4.00;;;;;;;;;;4977041;28;20454;-71
2022/10/06 06:44:12;;;;;;;8.20;4.13;;;;;;;;;;4977100;28;20109;-70
2022/10/06 06:46:43;;;;;;;6.75;3.75;;;;;;;;;;4976999;28;20568;-70
2022/10/06 06:49:13;;;;;;;4.22;3.78;;;;;;;;;;4977253;28;20042;-69
2022/10/06 06:51:48;;;;;;;4.07;3.70;;;;;;;;;;4992851;28;20037;-69
2022/10/06 06:54:17;;;;;;;4.75;3.67;;;;;;;;;;4994025;28;20034;-69
2022/10/06 06:56:44;;;;;;;4.63;3.28;;;;;;;;;;4975565;28;20018;-69
2022/10/06 06:59:12;;;;;;;7.97;3.47;;;;;;;;;;4974945;28;20027;-69
2022/10/06 07:01:43;;;;;;;3.85;3.55;;;;;;;;;;4974811;28;20072;-70
2022/10/06 07:04:10;;;;;;;3.80;3.42;;;;;;;;;;4975083;28;20062;-70
2022/10/06 07:06:36;;;;;;;4.40;3.92;;;;;;;;;;4975164;28;20038;-70
2022/10/06 07:09:02;;;;;;;7.63;4.18;;;;;;;;;;4994539;28;20037;-70
2022/10/06 07:11:29;;;;;;;4.85;3.95;;;;;;;;;;4979859;28;20077;-70
2022/10/06 07:14:03;;;;;;;4.72;3.08;;;;;;;;;;4980415;28;20038;-69
2022/10/06 07:27:30;;;;;;;4.00;3.38;;;;;;;;;;4980546;28;20033;-69
2022/10/06 07:29:55;;;;;;;4.13;3.67;;;;;;;;;;4996749;28;20014;-69
2022/10/06 07:32:22;;;;;;;6.28;3.33;;;;;;;;;;4981042;28;20531;-70
2022/10/06 07:34:48;;;;;;;5.70;3.47;;;;;;;;;;4980914;28;20029;-69
2022/10/06 07:37:13;;;;;;;5.88;3.60;;;;;;;;;;4998392;28;20105;-70
2022/10/06 07:39:38;;;;;;;5.00;3.50;;;;;;;;;;4980298;28;20029;-69
2022/10/06 07:42:09;;;;;;;5.13;3.88;;;;;;;;;;4980414;28;20452;-69
2022/10/06 07:44:34;;;;;;;5.35;3.70;;;;;;;;;;4980218;28;20436;-70
2022/10/06 07:47:01;;;;;;;5.80;3.88;;;;;;;;;;4997652;28;20073;-70
2022/10/06 07:49:46;;;;;;;4.95;4.25;;;;;;;;;;4997178;28;20450;-70
2022/10/06 07:52:12;;;;;;;6.50;4.47;;;;;;;;;;4980376;28;20033;-71
2022/10/06 07:54:37;;;;;;;4.88;4.22;;;;;;;;;;4980020;28;20014;-69
2022/10/06 07:57:13;;;;;;;9.15;4.28;;;;;;;;;;4979980;28;20023;-69
2022/10/06 07:59:40;;;;;;;5.13;3.58;;;;;;;;;;4997459;28;20126;-70
2022/10/06 08:02:06;;;;;;;4.25;3.75;;;;;;;;;;4997947;28;20085;-70
2022/10/06 08:04:31;;;;;;;5.68;3.65;;;;;;;;;;4997596;28;20042;-69
2022/10/06 08:06:58;;;;;;;6.70;3.63;;;;;;;;;;4979834;28;20028;-71
2022/10/06 08:09:24;;;;;;;5.40;4.03;;;;;;;;;;4997811;28;20026;-68
2022/10/06 08:11:49;;;;;;;4.65;3.58;;;;;;;;;;4997331;28;20026;-71
2022/10/06 08:14:15;;;;;;;6.90;4.18;;;;;;;;;;4997158;28;20038;-74
2022/10/06 08:16:40;;;;;;;7.75;4.22;;;;;;;;;;4997618;28;20054;-74
2022/10/06 08:19:08;;;;;;;5.85;3.78;;;;;;;;;;4996356;28;20396;-72
2022/10/06 08:21:33;;;;;;;8.65;5.03;;;;;;;;;;4997545;28;20021;-73
2022/10/06 08:23:59;;;;;;;6.55;4.80;;;;;;;;;;4996940;28;20030;-73
2022/10/06 08:26:25;;;;;;;5.32;3.47;;;;;;;;;;4996911;28;20475;-74
2022/10/06 08:28:52;;;;;;;7.85;3.72;;;;;;;;;;4996887;28;20034;-73
2022/10/06 08:31:19;;;;;;;5.20;3.95;;;;;;;;;;4997059;28;20029;-73
2022/10/06 08:33:45;;;;;;;4.15;3.63;;;;;;;;;;4996824;28;20066;-73
2022/10/06 08:36:13;;;;;;;6.80;3.53;;;;;;;;;;4997241;28;20417;-72
2022/10/06 08:38:39;;;;;;;5.43;3.00;;;;;;;;;;4979304;28;20037;-73
2022/10/06 08:41:23;;;;;;;7.53;4.00;;;;;;;;;;4979153;28;20117;-73
2022/10/06 08:43:58;;;;;;;5.00;3.42;;;;;;;;;;4996527;28;20025;-74
2022/10/06 08:46:25;;;;;;;3.95;3.05;;;;;;;;;;4979498;28;20038;-74
2022/10/06 08:48:50;;;;;;;4.05;3.13;;;;;;;;;;4996447;28;20453;-73
2022/10/06 08:51:17;;;;;;;3.72;2.75;;;;;;;;;;4996441;28;20118;-74
2022/10/06 08:53:58;;;;;;;3.60;2.90;;;;;;;;;;4979074;28;20018;-72
2022/10/06 08:56:26;;;;;;;2.90;2.60;;;;;;;;;;4996635;28;20038;-74
2022/10/06 08:58:51;;;;;;;4.45;3.05;;;;;;;;;;4978878;28;20437;-73
2022/10/06 09:01:19;;;;;;;5.13;3.15;;;;;;;;;;4996114;28;20078;-73
2022/10/06 09:03:47;;;;;;;2.97;2.60;;;;;;;;;;4996391;28;20475;-74
2022/10/06 09:06:17;;;;;;;5.50;2.88;;;;;;;;;;4978668;28;20469;-74
2022/10/06 09:08:57;;;;;;;3.63;2.53;;;;;;;;;;4996137;28;20034;-70
2022/10/06 09:11:38;;;;;;;4.13;2.90;;;;;;;;;;4996046;28;20041;-69
2022/10/06 09:14:08;;;;;;;4.22;3.10;;;;;;;;;;4996029;28;20038;-69
2022/10/06 09:16:37;;;;;;;3.78;2.80;;;;;;;;;;4995924;28;20135;-70
2022/10/06 09:19:23;;;;;;;4.60;2.95;;;;;;;;;;4995979;28;20019;-70
2022/10/06 09:21:49;;;;;;;2.83;2.60;;;;;;;;;;4996044;28;20030;-70
2022/10/06 09:24:36;;;;;;;3.70;2.40;;;;;;;;;;4995851;28;20022;-70
2022/10/06 09:27:13;;;;;;;3.70;2.90;;;;;;;;;;4995666;28;20026;-69
2022/10/06 09:29:39;;;;;;;3.42;3.08;;;;;;;;;;4978452;28;20109;-70
2022/10/06 09:32:05;;;;;;;5.88;3.42;;;;;;;;;;4995091;28;20109;-70
2022/10/06 09:34:31;;;;;;;7.03;3.80;;;;;;;;;;4978673;28;20044;-70
2022/10/06 09:37:02;;;;;;;7.22;4.03;;;;;;;;;;4995230;28;20030;-69
2022/10/06 09:39:31;;;;;;;7.15;4.00;;;;;;;;;;4994781;28;20040;-70
2022/10/06 09:41:58;;;;;;;4.55;3.17;;;;;;;;;;4995512;28;20035;-69
2022/10/06 09:44:26;;;;;;;5.20;3.85;;;;;;;;;;4994299;28;20056;-70
2022/10/06 09:46:52;;;;;;;7.57;3.70;;;;;;;;;;4995000;28;20435;-70
2022/10/06 09:49:21;;;;;;;5.88;3.55;;;;;;;;;;4993630;28;20145;-69
2022/10/06 09:52:08;;;;;;;9.02;4.15;;;;;;;;;;4976036;28;20038;-70
2022/10/06 09:54:33;;;;;;;5.57;4.13;;;;;;;;;;4993489;28;20508;-69
2022/10/06 09:57:06;;;;;;;9.32;3.72;;;;;;;;;;4993437;28;20061;-69
2022/10/06 09:59:39;;;;;;;7.10;4.13;;;;;;;;;;4993291;28;20036;-71
2022/10/06 10:02:17;;;;;;;8.02;3.28;;;;;;;;;;4993757;28;20030;-70
2022/10/06 10:04:43;;;;;;;3.15;2.83;;;;;;;;;;4978590;28;20448;-69
2022/10/06 10:07:12;;;;;;;4.38;3.13;;;;;;;;;;4995061;28;20161;-69
2022/10/06 10:09:40;;;;;;;3.25;2.67;;;;;;;;;;4995004;28;20026;-70
2022/10/06 10:12:26;;;;;;;6.95;2.85;;;;;;;;;;4995536;28;20411;-69
2022/10/06 10:14:52;;;;;;;3.05;2.55;;;;;;;;;;4995456;28;20378;-70
2022/10/06 10:17:19;;;;;;;9.95;2.80;;;;;;;;;;4994921;28;20033;-68
2022/10/06 10:19:51;;;;;;;3.60;3.13;;;;;;;;;;4995153;28;20080;-69
2022/10/06 10:22:21;;;;;;;3.40;2.90;;;;;;;;;;4977379;28;20030;-70
2022/10/06 10:25:09;;;;;;;3.67;3.22;;;;;;;;;;4993570;28;20022;-69
2022/10/06 10:27:39;;;;;;;4.00;2.90;;;;;;;;;;4977417;28;20454;-69
2022/10/06 10:30:08;;;;;;;4.07;3.03;;;;;;;;;;4994997;28;20050;-69
2022/10/06 10:32:57;;;;;;;3.15;2.78;;;;;;;;;;4977355;28;20481;-70
2022/10/06 10:35:34;;;;;;;3.50;2.85;;;;;;;;;;4995070;28;20045;-69
2022/10/06 10:38:10;;;;;;;3.15;2.85;;;;;;;;;;4994824;28;20058;-69
2022/10/06 10:40:52;;;;;;;5.70;3.03;;;;;;;;;;4993848;28;20026;-69
2022/10/06 10:43:21;;;;;;;2.97;2.67;;;;;;;;;;4994710;28;20084;-69
2022/10/06 10:46:10;;;;;;;4.18;2.72;;;;;;;;;;4994740;28;20070;-67
2022/10/06 10:48:41;;;;;;;3.50;2.72;;;;;;;;;;4995024;28;20042;-68
2022/10/06 10:51:25;;;;;;;6.07;2.75;;;;;;;;;;4994828;28;20035;-69
2022/10/06 10:53:53;;;;;;;5.03;2.80;;;;;;;;;;4994636;28;20038;-70
2022/10/06 10:56:21;;;;;;;4.45;2.33;;;;;;;;;;4976889;28;20057;-69
2022/10/06 10:58:49;;;;;;;2.90;2.65;;;;;;;;;;4994669;28;20404;-73
2022/10/06 11:01:21;;;;;;;7.28;2.80;;;;;;;;;;4994041;28;20077;-69
2022/10/06 11:03:55;;;;;;;5.75;3.20;;;;;;;;;;4976836;28;20046;-70
2022/10/06 11:06:41;;;;;;;2.95;2.70;;;;;;;;;;4994224;28;20037;-73
2022/10/06 11:09:16;;;;;;;3.83;2.08;;;;;;;;;;4957093;28;20065;-73
2022/10/06 11:12:12;;;;;;;2.78;2.22;;;;;;;;;;4977139;28;20041;-73
2022/10/06 11:14:58;;;;;;;2.58;2.17;;;;;;;;;;4985630;28;20141;-69
2022/10/06 11:17:43;;;;;;;2.42;2.10;;;;;;;;;;4976510;28;20174;-70
2022/10/06 11:20:14;;;;;;;8.18;2.55;;;;;;;;;;4994395;28;20117;-69
2022/10/06 11:22:43;;;;;;;3.15;1.70;;;;;;;;;;4976999;28;20030;-69
2022/10/06 11:25:27;;;;;;;3.72;2.35;;;;;;;;;;4976664;28;20084;-69
2022/10/06 11:28:12;;;;;;;2.30;1.73;;;;;;;;;;4994027;28;20113;-69
2022/10/06 11:30:52;;;;;;;2.38;2.20;;;;;;;;;;4976627;28;20125;-69
2022/10/06 11:33:26;;;;;;;2.92;1.95;;;;;;;;;;4994014;28;20424;-69
2022/10/06 11:35:52;;;;;;;2.03;1.92;;;;;;;;;;4993927;28;20065;-70
2022/10/06 11:38:26;;;;;;;2.40;1.90;;;;;;;;;;4994213;28;20018;-69
2022/10/06 11:41:10;;;;;;;2.85;1.67;;;;;;;;;;4994204;28;20023;-70
2022/10/06 11:43:48;;;;;;;3.13;2.03;;;;;;;;;;4976497;28;20026;-69
2022/10/06 11:46:32;;;;;;;3.22;1.73;;;;;;;;;;4976874;28;20041;-69
2022/10/06 11:49:16;;;;;;;2.15;2.00;;;;;;;;;;4976370;28;20034;-69
2022/10/06 11:51:41;;;;;;;3.28;2.05;;;;;;;;;;4993867;28;20027;-73
2022/10/06 11:54:27;;;;;;;2.10;1.60;;;;;;;;;;4976385;28;20034;-70
2022/10/06 11:56:52;;;;;;;3.55;1.83;;;;;;;;;;4996745;28;20474;-70
2022/10/06 11:59:23;;;;;;;2.55;2.28;;;;;;;;;;4996870;28;20089;-70
2022/10/06 12:01:49;;;;;;;3.17;1.75;;;;;;;;;;4997614;28;20042;-71
2022/10/06 12:04:15;;;;;;;1.55;1.45;;;;;;;;;;4997932;28;20038;-69
2022/10/06 12:06:47;;;;;;;3.83;1.90;;;;;;;;;;4980207;28;20041;-69
2022/10/06 12:09:26;;;;;;;1.90;1.80;;;;;;;;;;4979847;28;20037;-69
2022/10/06 12:11:55;;;;;;;2.33;1.63;;;;;;;;;;4997761;28;20042;-68
2022/10/06 12:14:29;;;;;;;3.75;1.75;;;;;;;;;;4997764;28;20030;-68
2022/10/06 12:16:58;;;;;;;2.08;1.90;;;;;;;;;;4997507;28;20081;-69
2022/10/06 12:19:33;;;;;;;2.55;2.03;;;;;;;;;;4997542;28;20342;-68
2022/10/06 12:22:17;;;;;;;3.10;2.30;;;;;;;;;;4997294;28;20114;-69
2022/10/06 12:25:08;;;;;;;2.85;2.08;;;;;;;;;;4997283;28;20022;-70
2022/10/06 12:27:40;;;;;;;2.65;1.95;;;;;;;;;;4992225;28;20405;-69
2022/10/06 12:30:15;;;;;;;3.40;1.92;;;;;;;;;;4979644;28;20031;-68
2022/10/06 12:32:41;;;;;;;4.95;2.22;;;;;;;;;;4996836;28;20034;-69
2022/10/06 12:35:06;;;;;;;2.08;1.98;;;;;;;;;;4963217;28;20085;-69
2022/10/06 12:37:31;;;;;;;5.78;2.90;;;;;;;;;;4997087;28;20548;-69
2022/10/06 12:40:15;;;;;;;4.07;2.25;;;;;;;;;;4996722;28;20022;-69
2022/10/06 12:42:41;;;;;;;2.20;2.00;;;;;;;;;;4979119;28;20035;-70
2022/10/06 12:45:15;;;;;;;2.90;2.00;;;;;;;;;;4979557;28;20109;-69
2022/10/06 12:47:42;;;;;;;2.53;2.22;;;;;;;;;;4996583;28;20025;-61
2022/10/06 12:50:21;;;;;;;4.07;2.10;;;;;;;;;;4996528;28;20011;-68
2022/10/06 12:53:03;;;;;;;2.85;2.10;;;;;;;;;;4997101;28;20050;-69
2022/10/06 12:55:40;;;;;;;3.35;1.98;;;;;;;;;;4996874;28;20081;-68
2022/10/06 12:58:14;;;;;;;2.60;1.98;;;;;;;;;;4996390;28;20532;-68
2022/10/06 13:00:41;;;;;;;2.88;1.90;;;;;;;;;;4996189;28;20052;-68
2022/10/06 13:03:14;;;;;;;4.13;2.15;;;;;;;;;;4979251;28;20034;-68
2022/10/06 13:05:40;;;;;;;3.88;2.17;;;;;;;;;;4977122;28;20052;-67
2022/10/06 13:08:20;;;;;;;3.47;2.25;;;;;;;;;;4994236;28;20033;-69
2022/10/06 13:10:45;;;;;;;3.57;2.37;;;;;;;;;;4975923;28;20104;-68
2022/10/06 13:13:24;;;;;;;2.70;2.50;;;;;;;;;;4975912;28;20752;-67
2022/10/06 13:15:50;;;;;;;3.08;2.30;;;;;;;;;;4993814;28;20022;-68
2022/10/06 13:18:17;;;;;;;3.38;2.10;;;;;;;;;;4993312;28;20532;-69
2022/10/06 13:20:49;;;;;;;3.45;2.50;;;;;;;;;;4993822;28;20034;-68
2022/10/06 13:23:17;;;;;;;2.78;2.15;;;;;;;;;;4977322;28;20027;-67
2022/10/06 13:25:45;;;;;;;5.05;2.70;;;;;;;;;;4976930;28;20384;-66
2022/10/06 13:28:27;;;;;;;3.85;2.17;;;;;;;;;;4994808;28;20039;-69
2022/10/06 13:31:00;;;;;;;3.22;2.45;;;;;;;;;;4994761;28;20088;-70
2022/10/06 13:33:27;;;;;;;2.97;2.15;;;;;;;;;;4994721;28;20085;-69
2022/10/06 13:35:53;;;;;;;2.60;2.38;;;;;;;;;;4994655;28;20117;-72
2022/10/06 13:38:19;;;;;;;2.45;2.28;;;;;;;;;;4994784;28;20036;-73
2022/10/06 13:41:00;;;;;;;3.72;2.40;;;;;;;;;;4994686;28;20109;-72
2022/10/06 13:43:26;;;;;;;4.45;2.53;;;;;;;;;;4994776;28;20027;-72
2022/10/06 13:45:52;;;;;;;3.60;2.33;;;;;;;;;;4977253;28;20072;-72
2022/10/06 13:48:20;;;;;;;2.80;2.50;;;;;;;;;;4994596;28;20038;-72
2022/10/06 13:50:46;;;;;;;4.15;2.20;;;;;;;;;;4977226;28;20027;-72
2022/10/06 13:53:29;;;;;;;2.10;1.90;;;;;;;;;;4994497;28;20473;-73
2022/10/06 13:55:54;;;;;;;2.28;2.08;;;;;;;;;;4977059;28;20158;-72
2022/10/06 13:58:23;;;;;;;2.60;2.08;;;;;;;;;;4995086;28;20513;-72
2022/10/06 14:00:55;;;;;;;2.47;2.15;;;;;;;;;;5033850;28;20135;-72
2022/10/06 14:03:26;;;;;;;2.25;2.00;;;;;;;;;;5034220;28;20059;-72
2022/10/06 14:06:26;;;;;;;2.45;2.28;;;;;;;;;;5033904;28;20034;-72
2022/10/06 14:08:56;;;;;;;2.30;2.10;;;;;;;;;;4994285;28;20037;-73
2022/10/06 14:11:25;;;;;;;2.72;2.28;;;;;;;;;;5033642;28;20364;-72
2022/10/06 14:14:01;;;;;;;4.60;2.40;;;;;;;;;;5016147;28;20032;-67
2022/10/06 14:16:27;;;;;;;4.03;2.00;;;;;;;;;;5033611;28;20383;-67
2022/10/06 14:18:58;;;;;;;2.45;2.22;;;;;;;;;;5033074;28;20064;-68
2022/10/06 14:21:24;;;;;;;2.42;2.28;;;;;;;;;;5033734;28;20415;-68
2022/10/06 14:23:50;;;;;;;2.58;2.38;;;;;;;;;;5015367;28;20013;-67
2022/10/06 14:26:17;;;;;;;2.90;2.10;;;;;;;;;;5033135;28;20535;-69
2022/10/06 14:28:52;;;;;;;3.30;2.00;;;;;;;;;;5015480;28;20013;-69
2022/10/06 14:31:19;;;;;;;2.83;2.03;;;;;;;;;;5032937;28;20033;-69
2022/10/06 14:33:45;;;;;;;1.73;1.63;;;;;;;;;;5032982;28;20104;-69
2022/10/06 14:36:26;;;;;;;2.00;1.90;;;;;;;;;;5032811;28;20490;-70
2022/10/06 14:38:52;;;;;;;2.85;2.00;;;;;;;;;;5032796;28;20538;-68
2022/10/06 14:41:18;;;;;;;2.97;2.13;;;;;;;;;;5015359;28;20387;-70
2022/10/06 14:43:44;;;;;;;3.10;1.70;;;;;;;;;;5032777;28;20025;-70
2022/10/06 14:46:13;;;;;;;2.92;2.00;;;;;;;;;;5015574;28;20021;-69
2022/10/06 14:48:39;;;;;;;3.08;2.22;;;;;;;;;;5033005;28;20045;-69
2022/10/06 14:51:04;;;;;;;5.57;4.18;;;;;;;;;;5015058;28;20025;-70
2022/10/06 14:53:29;;;;;;;5.30;3.55;;;;;;;;;;5032606;28;20056;-68
2022/10/06 14:56:04;;;;;;;7.00;4.20;;;;;;;;;;5032545;28;20022;-70
2022/10/06 14:58:31;;;;;;;3.72;2.70;;;;;;;;;;5032395;28;20098;-69
2022/10/06 15:01:06;;;;;;;4.82;3.35;;;;;;;;;;5032846;28;20041;-69
2022/10/06 15:03:32;;;;;;;4.53;3.10;;;;;;;;;;5032436;28;20387;-70
2022/10/06 15:08:42;;;;;;;2.58;1.95;;;;;;;;;;5014816;28;20041;-70